US-0460 weather

Falwell Base
Olyphant, Arkansas, United States

Public forecast

Using degrees Fahrenheit for public forecast. Weather courtesy of forecast.io.

Closest aviation weather report (METAR) to Falwell Base

Closest report is Newport Regional Airport, 9.3 nm (17.2 km) NE. Retrieved UTC (0 seconds ago):

Closest aviation forecast (TAF) to Falwell Base

Closest forecast is Jonesboro Municipal Airport, 37.5 nm (69.5 km) ENE. Retrieved 2020/01/26 06:39 UTC (1 hour ago):

TAF KJBR 260537Z 2606/2706 18003KT P6SM VCSH FEW050 BKN080 FM261000 19005KT P6SM VCSH OVC045 FM261500 21008KT P6SM VCSH OVC025 FM262200 22007KT 6SM BR VCSH OVC015 FM270300 26005KT P6SM OVC008